Time;durP1;ratioP1;P1;durP2;ratioP2;P2;SDS_P1;SDS_P2;PMS_P1;PMS_P2;Temp;Humidity;BMP_temperature;BMP_pressure;BME280_temperature;BME280_humidity;BME280_pressure;Samples;Min_cycle;Max_cycle;Signal;HPM_P1;HPM_P2
2022/02/10 00:05:58;;;;;;;;;;;;;;;;;;5162828;27;19914;-91
2022/02/10 00:14:27;;;;;;;;;;;;;;;;;;5164120;27;19922;-92
2022/02/10 00:17:12;;;;;;;;;;;;;;;;;;5163259;27;19933;-91
2022/02/10 00:19:51;;;;;;;;;;;;;;;;;;5163447;27;19927;-91
2022/02/10 00:22:28;;;;;;;;;;;;;;;;;;5163727;27;19927;-91
2022/02/10 00:35:53;;;;;;;;;;;;;;;;;;5158163;27;19919;-91
2022/02/10 00:38:22;;;;;;;;;;;;;;;;;;5142409;27;20010;-91
2022/02/10 00:40:49;;;;;;;;;;;;;;;;;;5150695;27;20389;-92
2022/02/10 00:43:15;;;;;;;;;;;;;;;;;;5163860;27;20431;-91
2022/02/10 00:45:41;;;;;;;;;;;;;;;;;;5163550;27;20414;-92
2022/02/10 00:48:09;;;;;;;;;;;;;;;;;;5164620;27;20379;-91
2022/02/10 00:50:36;;;;;;;;;;;;;;;;;;5167681;27;19950;-91
2022/02/10 00:53:06;;;;;;;;;;;;;;;;;;5167991;27;19927;-91
2022/02/10 00:55:34;;;;;;;;;;;;;;;;;;5167611;27;20434;-90
2022/02/10 00:58:04;;;;;;;;;;;;;;;;;;5167573;27;19949;-91
2022/02/10 01:11:58;;;;;;;;;;;;;;;;;;5157521;27;20029;-91
2022/02/10 01:24:26;;;;;;;;;;;;;;;;;;5166913;27;19923;-92
2022/02/10 01:30:58;;;;;;;;;;;;;;;;;;5167061;27;19995;-91
2022/02/10 01:33:25;;;;;;;;;;;;;;;;;;5167417;27;19923;-90
2022/02/10 01:35:52;;;;;;;;;;;;;;;;;;5166277;27;19965;-90
2022/02/10 01:38:18;;;;;;;;;;;;;;;;;;5167208;27;19923;-91
2022/02/10 01:41:13;;;;;;;;;;;;;;;;;;5164647;27;19945;-91
2022/02/10 02:05:36;;;;;;;;;;;;;;;;;;5162781;27;19926;-91
2022/02/10 02:08:02;;;;;;;;;;;;;;;;;;5143934;27;19971;-91
2022/02/10 02:10:28;;;;;;;;;;;;;;;;;;5144148;27;19984;-91
2022/02/10 02:12:55;;;;;;;;;;;;;;;;;;5164580;27;19927;-91
2022/02/10 02:15:21;;;;;;;;;;;;;;;;;;5165557;27;19927;-92
2022/02/10 02:17:48;;;;;;;;;;;;;;;;;;5165617;27;19963;-92
2022/02/10 02:20:14;;;;;;;;;;;;;;;;;;5165583;27;19927;-92
2022/02/10 02:22:40;;;;;;;;;;;;;;;;;;5163974;27;19974;-92
2022/02/10 02:25:06;;;;;;;;;;;;;;;;;;5165675;27;19923;-91
2022/02/10 02:27:33;;;;;;;;;;;;;;;;;;5165582;27;19927;-92
2022/02/10 02:30:10;;;;;;;;;;;;;;;;;;5165888;27;19928;-92
2022/02/10 02:32:47;;;;;;;;;;;;;;;;;;5164499;27;19926;-90
2022/02/10 02:35:30;;;;;;;;;;;;;;;;;;5164905;27;19923;-91
2022/02/10 02:38:12;;;;;;;;;;;;;;;;;;5165586;27;19923;-92
2022/02/10 03:05:25;;;;;;;;;;;;;;;;;;5163647;27;20006;-93
2022/02/10 03:07:55;;;;;;;;;;;;;;;;;;5159571;27;19927;-93
2022/02/10 03:10:41;;;;;;;;;;;;;;;;;;5163634;27;19927;-92
2022/02/10 03:13:11;;;;;;;;;;;;;;;;;;5146489;27;19974;-92
2022/02/10 03:15:46;;;;;;;;;;;;;;;;;;5144775;27;19923;-92
2022/02/10 03:18:24;;;;;;;;;;;;;;;;;;5163661;27;19990;-93
2022/02/10 03:21:16;;;;;;;;;;;;;;;;;;5159419;27;19931;-92
2022/02/10 04:05:15;;;;;;;;;;;;;;;;;;5099848;28;19947;-94
2022/02/10 04:07:59;;;;;;;;;;;;;;;;;;5150338;27;19923;-93
2022/02/10 04:13:33;;;;;;;;;;;;;;;;;;5125480;27;20018;-92
2022/02/10 04:16:10;;;;;;;;;;;;;;;;;;5163832;27;19930;-94
2022/02/10 04:21:35;;;;;;;;;;;;;;;;;;5162093;27;20552;-92
2022/02/10 04:24:17;;;;;;;;;;;;;;;;;;5141202;27;19934;-93
2022/02/10 04:26:53;;;;;;;;;;;;;;;;;;5144854;27;19945;-92
2022/02/10 04:29:40;;;;;;;;;;;;;;;;;;5163525;27;19982;-92
2022/02/10 04:38:25;;;;;;;;;;;;;;;;;;5152052;27;19940;-92
2022/02/10 05:00:14;;;;;;;;;;;;;;;;;;5163498;27;19954;-93
2022/02/10 05:03:21;;;;;;;;;;;;;;;;;;5162265;27;19930;-92
2022/02/10 05:06:36;;;;;;;;;;;;;;;;;;5161718;27;19927;-92
2022/02/10 05:17:30;;;;;;;;;;;;;;;;;;5145456;27;19938;-93
2022/02/10 05:20:09;;;;;;;;;;;;;;;;;;5162520;27;19927;-93
2022/02/10 05:22:47;;;;;;;;;;;;;;;;;;5149192;27;19927;-92
2022/02/10 05:33:43;;;;;;;;;;;;;;;;;;5163253;27;19921;-93
2022/02/10 05:36:12;;;;;;;;;;;;;;;;;;5148595;27;19930;-93
2022/02/10 05:38:43;;;;;;;;;;;;;;;;;;5166763;27;19933;-92
2022/02/10 05:47:06;;;;;;;;;;;;;;;;;;5162246;27;19980;-93
2022/02/10 05:55:20;;;;;;;;;;;;;;;;;;5166568;27;19964;-92
2022/02/10 05:57:52;;;;;;;;;;;;;;;;;;5165573;27;19923;-92
2022/02/10 06:38:15;;;;;;;;;;;;;;;;;;5130995;27;19966;-92
2022/02/10 06:47:47;;;;;;;;;;;;;;;;;;5164481;27;19969;-94
2022/02/10 06:50:51;;;;;;;;;;;;;;;;;;5145047;27;19958;-91
2022/02/10 06:53:27;;;;;;;;;;;;;;;;;;5151847;27;19927;-91
2022/02/10 07:10:03;;;;;;;;;;;;;;;;;;5158279;27;19945;-93
2022/02/10 07:48:33;;;;;;;;;;;;;;;;;;5153369;27;19923;-90
2022/02/10 07:53:57;;;;;;;;;;;;;;;;;;5175881;27;20009;-90
2022/02/10 07:59:35;;;;;;;;;;;;;;;;;;5164649;27;19937;-90
2022/02/10 08:57:06;;;;;;;;;;;;;;;;;;5164949;27;19938;-92
2022/02/10 09:00:00;;;;;;;;;;;;;;;;;;5166307;27;19973;-90
2022/02/10 09:05:37;;;;;;;;;;;;;;;;;;5064899;27;2223646;-92
2022/02/10 09:08:46;;;;;;;;;;;;;;;;;;5140758;27;19970;-91
2022/02/10 09:14:26;;;;;;;;;;;;;;;;;;5054089;28;19940;-92
2022/02/10 09:17:19;;;;;;;;;;;;;;;;;;5132187;28;19935;-92
2022/02/10 09:47:50;;;;;;;;;;;;;;;;;;5138666;28;19985;-90
2022/02/10 09:56:00;;;;;;;;;;;;;;;;;;5136937;28;19945;-90
2022/02/10 09:58:56;;;;;;;;;;;;;;;;;;5137048;28;19934;-91
2022/02/10 10:01:30;;;;;;;;;;;;;;;;;;5133347;28;19971;-90
2022/02/10 10:03:59;;;;;;;;;;;;;;;;;;5134251;28;19928;-90
2022/02/10 10:06:39;;;;;;;;;;;;;;;;;;5138022;28;19923;-90
2022/02/10 10:09:18;;;;;;;;;;;;;;;;;;5138836;28;20792;-90
2022/02/10 10:12:11;;;;;;;;;;;;;;;;;;5138405;28;19946;-90
2022/02/10 10:14:43;;;;;;;;;;;;;;;;;;5135325;28;19924;-90
2022/02/10 10:17:22;;;;;;;;;;;;;;;;;;5123991;28;19954;-92
2022/02/10 10:22:40;;;;;;;;;;;;;;;;;;5115409;28;20493;-89
2022/02/10 10:25:35;;;;;;;;;;;;;;;;;;5124355;28;19991;-89
2022/02/10 10:45:06;;;;;;;;;;;;;;;;;;5117894;28;20039;-91
2022/02/10 10:50:16;;;;;;;;;;;;;;;;;;5071651;28;19934;-90
2022/02/10 10:55:39;;;;;;;;;;;;;;;;;;5119614;28;20371;-89
2022/02/10 10:58:12;;;;;;;;;;;;;;;;;;5124048;28;19927;-90
2022/02/10 11:01:09;;;;;;;;;;;;;;;;;;5123645;28;19931;-89
2022/02/10 11:03:47;;;;;;;;;;;;;;;;;;5122372;28;19927;-90
2022/02/10 11:36:45;;;;;;;;;;;;;;;;;;5122818;28;19923;-91
2022/02/10 11:39:17;;;;;;;;;;;;;;;;;;5120180;28;20615;-91
2022/02/10 11:41:50;;;;;;;;;;;;;;;;;;5122897;28;19970;-92
2022/02/10 11:44:52;;;;;;;;;;;;;;;;;;5124179;28;19930;-91
2022/02/10 12:01:44;;;;;;;;;;;;;;;;;;5123399;28;19981;-93
2022/02/10 12:37:02;;;;;;;;;;;;;;;;;;5121922;28;20031;-93
2022/02/10 12:40:07;;;;;;;;;;;;;;;;;;5123020;28;20713;-94
2022/02/10 14:13:52;;;;;;;;;;;;;;;;;;5121431;28;19923;-91
2022/02/10 14:16:34;;;;;;;;;;;;;;;;;;5124921;28;19923;-92
2022/02/10 14:19:12;;;;;;;;;;;;;;;;;;5125427;28;19958;-93
2022/02/10 14:21:47;;;;;;;;;;;;;;;;;;5124941;28;19924;-92
2022/02/10 14:26:59;;;;;;;;;;;;;;;;;;5112032;28;19988;-92
2022/02/10 14:29:26;;;;;;;;;;;;;;;;;;5104504;28;20035;-93
2022/02/10 14:31:54;;;;;;;;;;;;;;;;;;5116147;28;19931;-93
2022/02/10 14:34:25;;;;;;;;;;;;;;;;;;5124625;28;20045;-91
2022/02/10 14:37:00;;;;;;;;;;;;;;;;;;5123919;28;19932;-93
2022/02/10 14:39:47;;;;;;;;;;;;;;;;;;5123711;28;19974;-92
2022/02/10 14:42:43;;;;;;;;;;;;;;;;;;5124830;28;19935;-92
2022/02/10 15:57:00;;;;;;;;;;;;;;;;;;5083784;28;19930;-93
2022/02/10 16:18:42;;;;;;;;;;;;;;;;;;5118680;28;19950;-92
2022/02/10 16:21:09;;;;;;;;;;;;;;;;;;5117633;28;19927;-90
2022/02/10 16:23:35;;;;;;;;;;;;;;;;;;5119949;28;19923;-90
2022/02/10 16:26:14;;;;;;;;;;;;;;;;;;5119318;28;19938;-90
2022/02/10 16:28:41;;;;;;;;;;;;;;;;;;5121098;28;19945;-90
2022/02/10 16:31:07;;;;;;;;;;;;;;;;;;5120655;28;19935;-90
2022/02/10 16:33:34;;;;;;;;;;;;;;;;;;5118616;28;19949;-91
2022/02/10 16:36:00;;;;;;;;;;;;;;;;;;5120129;28;19934;-90
2022/02/10 16:38:26;;;;;;;;;;;;;;;;;;5121855;28;19923;-90
2022/02/10 16:40:55;;;;;;;;;;;;;;;;;;5120615;28;20039;-90
2022/02/10 16:43:21;;;;;;;;;;;;;;;;;;5119905;28;19935;-90
2022/02/10 16:45:47;;;;;;;;;;;;;;;;;;5120374;28;19949;-90
2022/02/10 16:48:13;;;;;;;;;;;;;;;;;;5119512;28;19927;-90
2022/02/10 16:50:43;;;;;;;;;;;;;;;;;;5120626;28;19950;-90
2022/02/10 16:53:11;;;;;;;;;;;;;;;;;;5117941;28;19954;-91
2022/02/10 16:55:45;;;;;;;;;;;;;;;;;;5117720;28;19977;-90
2022/02/10 16:58:20;;;;;;;;;;;;;;;;;;5118660;28;19963;-91
2022/02/10 17:17:27;;;;;;;;;;;;;;;;;;5113135;28;19924;-91
2022/02/10 17:20:12;;;;;;;;;;;;;;;;;;5121316;28;20011;-90
2022/02/10 17:25:29;;;;;;;;;;;;;;;;;;5080909;28;19931;-91
2022/02/10 17:27:59;;;;;;;;;;;;;;;;;;5121181;28;19924;-90
2022/02/10 17:30:54;;;;;;;;;;;;;;;;;;5122594;28;19924;-91
2022/02/10 17:33:25;;;;;;;;;;;;;;;;;;5123917;28;19924;-90
2022/02/10 17:36:13;;;;;;;;;;;;;;;;;;5112112;28;19972;-90
2022/02/10 17:41:45;;;;;;;;;;;;;;;;;;5119018;28;19922;-92
2022/02/10 17:52:36;;;;;;;;;;;;;;;;;;5125053;28;20024;-90
2022/02/10 17:55:05;;;;;;;;;;;;;;;;;;5125018;28;19939;-91
2022/02/10 17:57:31;;;;;;;;;;;;;;;;;;5123703;28;19924;-91
2022/02/10 17:59:57;;;;;;;;;;;;;;;;;;5123021;28;19923;-92
2022/02/10 18:02:23;;;;;;;;;;;;;;;;;;5124104;28;19945;-91
2022/02/10 18:04:50;;;;;;;;;;;;;;;;;;5121776;28;19923;-91
2022/02/10 18:07:16;;;;;;;;;;;;;;;;;;5122279;28;19930;-90
2022/02/10 18:15:16;;;;;;;;;;;;;;;;;;5124781;28;19934;-90
2022/02/10 18:17:48;;;;;;;;;;;;;;;;;;5124150;28;19927;-90
2022/02/10 18:20:19;;;;;;;;;;;;;;;;;;5124671;28;20370;-90
2022/02/10 18:22:59;;;;;;;;;;;;;;;;;;5123826;28;19927;-90
2022/02/10 18:25:33;;;;;;;;;;;;;;;;;;5122156;28;19931;-90
2022/02/10 18:28:20;;;;;;;;;;;;;;;;;;5124521;28;19924;-90
2022/02/10 18:33:49;;;;;;;;;;;;;;;;;;5116234;28;19938;-91
2022/02/10 19:09:11;;;;;;;;;;;;;;;;;;5116321;28;19930;-90
2022/02/10 19:11:45;;;;;;;;;;;;;;;;;;5122200;28;19928;-90
2022/02/10 19:14:11;;;;;;;;;;;;;;;;;;5123063;28;19928;-90
2022/02/10 19:16:37;;;;;;;;;;;;;;;;;;5123570;28;19972;-91
2022/02/10 19:19:04;;;;;;;;;;;;;;;;;;5123327;28;19932;-90
2022/02/10 19:21:31;;;;;;;;;;;;;;;;;;5123519;28;19966;-91
2022/02/10 19:23:57;;;;;;;;;;;;;;;;;;5122622;28;19935;-91
2022/02/10 19:26:24;;;;;;;;;;;;;;;;;;5122292;28;19923;-90
2022/02/10 19:28:50;;;;;;;;;;;;;;;;;;5120813;28;19924;-90
2022/02/10 19:31:20;;;;;;;;;;;;;;;;;;5118345;28;19928;-91
2022/02/10 19:33:46;;;;;;;;;;;;;;;;;;5117307;28;19942;-93
2022/02/10 19:36:13;;;;;;;;;;;;;;;;;;5107540;28;19931;-91
2022/02/10 19:38:39;;;;;;;;;;;;;;;;;;5118723;28;19924;-91
2022/02/10 19:41:05;;;;;;;;;;;;;;;;;;5121844;28;19924;-91
2022/02/10 19:43:32;;;;;;;;;;;;;;;;;;5121850;28;19923;-91
2022/02/10 19:45:58;;;;;;;;;;;;;;;;;;5119424;28;20667;-91
2022/02/10 19:48:26;;;;;;;;;;;;;;;;;;5115277;28;20322;-92
2022/02/10 19:50:53;;;;;;;;;;;;;;;;;;5116399;28;19931;-92
2022/02/10 19:53:21;;;;;;;;;;;;;;;;;;5121932;28;20379;-91
2022/02/10 19:55:50;;;;;;;;;;;;;;;;;;5120994;28;19924;-91
2022/02/10 19:58:20;;;;;;;;;;;;;;;;;;5119765;28;19924;-91
2022/02/10 20:00:47;;;;;;;;;;;;;;;;;;5118666;28;19935;-92
2022/02/10 20:03:16;;;;;;;;;;;;;;;;;;5121928;28;20019;-91
2022/02/10 20:05:45;;;;;;;;;;;;;;;;;;5121939;28;19927;-91
2022/02/10 20:08:12;;;;;;;;;;;;;;;;;;5122305;28;19959;-91
2022/02/10 20:10:38;;;;;;;;;;;;;;;;;;5122154;28;19953;-92
2022/02/10 20:13:04;;;;;;;;;;;;;;;;;;5122148;28;19924;-91
2022/02/10 20:15:33;;;;;;;;;;;;;;;;;;5119091;28;19931;-91
2022/02/10 20:18:01;;;;;;;;;;;;;;;;;;5118745;28;19931;-91
2022/02/10 20:20:27;;;;;;;;;;;;;;;;;;5121763;28;19938;-91
2022/02/10 20:22:53;;;;;;;;;;;;;;;;;;5122062;28;19927;-91
2022/02/10 20:25:20;;;;;;;;;;;;;;;;;;5122536;28;19928;-91
2022/02/10 20:27:46;;;;;;;;;;;;;;;;;;5120792;28;19924;-91
2022/02/10 20:30:12;;;;;;;;;;;;;;;;;;5121616;28;19923;-92
2022/02/10 20:32:38;;;;;;;;;;;;;;;;;;5121774;28;19927;-91
2022/02/10 20:35:07;;;;;;;;;;;;;;;;;;5121891;28;19973;-96
2022/02/10 20:37:33;;;;;;;;;;;;;;;;;;5093988;28;19982;-94
2022/02/10 20:40:01;;;;;;;;;;;;;;;;;;5120757;28;19924;-92
2022/02/10 20:42:29;;;;;;;;;;;;;;;;;;5113772;28;19924;-94
2022/02/10 20:44:56;;;;;;;;;;;;;;;;;;5118349;28;19923;-93
2022/02/10 20:47:24;;;;;;;;;;;;;;;;;;5119257;28;19934;-93
2022/02/10 20:49:51;;;;;;;;;;;;;;;;;;5117277;28;19949;-91
2022/02/10 20:52:17;;;;;;;;;;;;;;;;;;5119927;28;19927;-91
2022/02/10 20:54:45;;;;;;;;;;;;;;;;;;5120124;28;19940;-92
2022/02/10 20:57:11;;;;;;;;;;;;;;;;;;5120363;28;19928;-94
2022/02/10 20:59:40;;;;;;;;;;;;;;;;;;5120004;28;19932;-94
2022/02/10 21:02:11;;;;;;;;;;;;;;;;;;5120161;28;19935;-95
2022/02/10 21:04:41;;;;;;;;;;;;;;;;;;5119991;28;19951;-95
2022/02/10 21:07:13;;;;;;;;;;;;;;;;;;5121433;28;19928;-96
2022/02/10 21:09:44;;;;;;;;;;;;;;;;;;5122306;28;19990;-96
2022/02/10 21:12:12;;;;;;;;;;;;;;;;;;5121926;28;19924;-94
2022/02/10 21:14:38;;;;;;;;;;;;;;;;;;5121855;28;19923;-94
2022/02/10 21:17:08;;;;;;;;;;;;;;;;;;5121875;28;20367;-93
2022/02/10 21:19:35;;;;;;;;;;;;;;;;;;5121827;28;20299;-93
2022/02/10 21:22:06;;;;;;;;;;;;;;;;;;5104830;28;20373;-92
2022/02/10 21:24:33;;;;;;;;;;;;;;;;;;5110134;28;19930;-93
2022/02/10 21:27:24;;;;;;;;;;;;;;;;;;5121068;28;19924;-92
2022/02/10 21:29:55;;;;;;;;;;;;;;;;;;5121623;28;19923;-93
2022/02/10 21:32:21;;;;;;;;;;;;;;;;;;5116840;28;19924;-92
2022/02/10 21:35:02;;;;;;;;;;;;;;;;;;5113656;28;19924;-92
2022/02/10 21:37:28;;;;;;;;;;;;;;;;;;5121573;28;19924;-93
2022/02/10 21:40:01;;;;;;;;;;;;;;;;;;5121777;28;19946;-93
2022/02/10 21:48:21;;;;;;;;;;;;;;;;;;5101037;28;19928;-92
2022/02/10 21:54:29;;;;;;;;;;;;;;;;;;5119029;28;20456;-95
2022/02/10 21:57:02;;;;;;;;;;;;;;;;;;5120286;28;19930;-93
2022/02/10 21:59:54;;;;;;;;;;;;;;;;;;5121432;28;19931;-94
2022/02/10 22:10:52;;;;;;;;;;;;;;;;;;5102207;28;19923;-95
2022/02/10 22:19:08;;;;;;;;;;;;;;;;;;5043473;28;20020;-93
2022/02/10 22:21:38;;;;;;;;;;;;;;;;;;5054924;28;20000;-94
2022/02/10 22:24:08;;;;;;;;;;;;;;;;;;5076834;28;20339;-93
2022/02/10 22:26:36;;;;;;;;;;;;;;;;;;5125534;28;19927;-94
2022/02/10 22:29:07;;;;;;;;;;;;;;;;;;5125475;28;19928;-94
2022/02/10 22:31:49;;;;;;;;;;;;;;;;;;5124420;28;20007;-94
2022/02/10 22:34:26;;;;;;;;;;;;;;;;;;5119952;28;19924;-93
2022/02/10 22:36:57;;;;;;;;;;;;;;;;;;5121089;28;19927;-94
2022/02/10 22:39:23;;;;;;;;;;;;;;;;;;5117555;28;19987;-94
2022/02/10 22:41:49;;;;;;;;;;;;;;;;;;5122860;28;19928;-93
2022/02/10 22:44:16;;;;;;;;;;;;;;;;;;5125383;28;19949;-93
2022/02/10 22:46:42;;;;;;;;;;;;;;;;;;5123786;28;19966;-94
2022/02/10 22:49:09;;;;;;;;;;;;;;;;;;5117088;28;19928;-94
2022/02/10 22:51:35;;;;;;;;;;;;;;;;;;5116754;28;20432;-93
2022/02/10 22:54:01;;;;;;;;;;;;;;;;;;5116997;28;20389;-94
2022/02/10 22:56:29;;;;;;;;;;;;;;;;;;5117528;28;19976;-94
2022/02/10 22:58:55;;;;;;;;;;;;;;;;;;5118964;28;20486;-92
2022/02/10 23:01:21;;;;;;;;;;;;;;;;;;5120648;28;20493;-92
2022/02/10 23:03:47;;;;;;;;;;;;;;;;;;5123346;28;20823;-93
2022/02/10 23:06:14;;;;;;;;;;;;;;;;;;5124349;28;19935;-94
2022/02/10 23:08:40;;;;;;;;;;;;;;;;;;5123099;28;19966;-93
2022/02/10 23:11:07;;;;;;;;;;;;;;;;;;5123362;28;20455;-93
2022/02/10 23:13:34;;;;;;;;;;;;;;;;;;5123630;28;20405;-94
2022/02/10 23:16:00;;;;;;;;;;;;;;;;;;5123719;28;20015;-92
2022/02/10 23:18:26;;;;;;;;;;;;;;;;;;5124299;28;19977;-93
2022/02/10 23:20:52;;;;;;;;;;;;;;;;;;5124192;28;19969;-93
2022/02/10 23:23:19;;;;;;;;;;;;;;;;;;5124703;28;19924;-92
2022/02/10 23:25:45;;;;;;;;;;;;;;;;;;5124349;28;19935;-93
2022/02/10 23:28:11;;;;;;;;;;;;;;;;;;5122510;28;19927;-93
2022/02/10 23:30:37;;;;;;;;;;;;;;;;;;5121480;28;19932;-92
2022/02/10 23:33:10;;;;;;;;;;;;;;;;;;5123343;28;19928;-93
2022/02/10 23:36:24;;;;;;;;;;;;;;;;;;5123257;28;19923;-94
2022/02/10 23:38:39;;;;;;;;;;;;;;;;;;5123001;28;20418;-93
2022/02/10 23:41:41;;;;;;;;;;;;;;;;;;5122681;28;19979;-93
2022/02/10 23:43:59;;;;;;;;;;;;;;;;;;5121434;28;19930;-93
2022/02/10 23:46:25;;;;;;;;;;;;;;;;;;5122103;28;19928;-93
2022/02/10 23:48:54;;;;;;;;;;;;;;;;;;5123704;28;19924;-93
2022/02/10 23:51:23;;;;;;;;;;;;;;;;;;5124035;28;19928;-93
2022/02/10 23:53:49;;;;;;;;;;;;;;;;;;5123831;28;20059;-93
2022/02/10 23:56:18;;;;;;;;;;;;;;;;;;5123353;28;19932;-94
2022/02/10 23:58:52;;;;;;;;;;;;;;;;;;5122926;28;19970;-93
